This is the latest recevied weather packets stored in our database for station/object SP9WPN-12. If no packets are shown the sender has not sent any weather packets the latest 10 day(s).
| Time | Temp. | Humidity | Pressure | Rain* | Wind** | Luminosity | Snow |
|---|---|---|---|---|---|---|---|
| 1777908752 | 27.22° C | 30% | 1011.6 hPa | - | - | - | - |
| 1777908154 | 26.11° C | 31% | 1011.8 hPa | - | - | - | - |
| 1777907556 | 26.11° C | 32% | 1011.9 hPa | - | - | - | - |
| 1777906958 | 26.11° C | 31% | 1011.8 hPa | - | - | - | - |
| 1777906360 | 27.22° C | 31% | 1011.9 hPa | - | - | - | - |
| 1777905763 | 26.67° C | 31% | 1012 hPa | - | - | - | - |
| 1777905166 | 27.22° C | 30% | 1011.9 hPa | - | - | - | - |
| 1777904567 | 28.33° C | 30% | 1011.9 hPa | - | - | - | - |
| 1777903969 | 27.22° C | 31% | 1012.1 hPa | - | - | - | - |
| 1777903372 | 27.22° C | 31% | 1012.3 hPa | - | - | - | - |
| 1777902774 | 26.11° C | 32% | 1012.5 hPa | - | - | - | - |
| 1777902177 | 26.67° C | 31% | 1012.5 hPa | - | - | - | - |
| 1777901579 | 26.67° C | 32% | 1012.6 hPa | - | - | - | - |
| 1777900981 | 26.67° C | 32% | 1012.6 hPa | - | - | - | - |
| 1777900384 | 27.22° C | 31% | 1012.7 hPa | - | - | - | - |
| 1777899787 | 27.22° C | 30% | 1012.6 hPa | - | - | - | - |
| 1777899189 | 27.22° C | 30% | 1012.7 hPa | - | - | - | - |
| 1777898591 | 27.22° C | 30% | 1012.7 hPa | - | - | - | - |
| 1777897992 | 27.22° C | 30% | 1012.8 hPa | - | - | - | - |
| 1777897394 | 27.22° C | 29% | 1013 hPa | - | - | - | - |
| 1777896797 | 26.11° C | 30% | 1013.2 hPa | - | - | - | - |
| 1777896199 | 26.67° C | 29% | 1013.1 hPa | - | - | - | - |
| 1777895601 | 26.11° C | 30% | 1013.3 hPa | - | - | - | - |
| 1777895004 | 27.22° C | 28% | 1013.3 hPa | - | - | - | - |
| 1777894407 | 26.67° C | 29% | 1013.4 hPa | - | - | - | - |
* Rain since midnight (hover to see other rain measurements)
** Current wind speed in m/s (hover to see current wind gust speed)